Time;durP1;ratioP1;P1;durP2;ratioP2;P2;SDS_P1;SDS_P2;PMS_P1;PMS_P2;Temp;Humidity;BMP_temperature;BMP_pressure;BME280_temperature;BME280_humidity;BME280_pressure;Samples;Min_cycle;Max_cycle;Signal;HPM_P1;HPM_P2
2022/10/05 00:00:59;;;;;;;3.35;1.98;;;;;;;0.89;54.20;98636.56;6321835;28;20036;-68
2022/10/05 00:04:25;;;;;;;2.40;1.92;;;;;;;1.25;51.71;98620.19;6321457;28;20044;-69
2022/10/05 00:07:28;;;;;;;3.35;1.88;;;;;;;1.67;50.68;98618.47;6321717;28;20505;-69
2022/10/05 00:10:33;;;;;;;4.13;2.50;;;;;;;1.81;50.25;98626.19;6321687;28;20043;-68
2022/10/05 00:13:34;;;;;;;2.38;1.85;;;;;;;2.01;49.81;98633.97;6321618;28;20197;-69
2022/10/05 00:16:38;;;;;;;4.28;2.72;;;;;;;2.05;49.79;98627.03;6321473;28;20501;-70
2022/10/05 00:19:43;;;;;;;3.95;2.38;;;;;;;1.90;49.85;98626.19;6321522;28;20036;-68
2022/10/05 00:22:45;;;;;;;8.77;4.88;;;;;;;1.67;50.92;98628.84;6320972;28;20531;-69
2022/10/05 00:25:50;;;;;;;4.13;2.20;;;;;;;1.54;51.49;98627.97;6321536;28;20512;-68
2022/10/05 00:28:52;;;;;;;12.18;5.53;;;;;;;1.41;51.63;98625.38;6321289;28;20137;-68
2022/10/05 00:31:57;;;;;;;34.83;13.40;;;;;;;1.26;52.22;98647.00;6320648;28;20051;-69
2022/10/05 00:35:03;;;;;;;13.65;7.13;;;;;;;1.18;52.16;98644.38;6320151;28;20042;-70
2022/10/05 00:38:07;;;;;;;14.68;8.10;;;;;;;1.11;52.80;98638.34;6321583;28;20047;-68
2022/10/05 00:41:22;;;;;;;5.82;2.90;;;;;;;1.35;51.86;98637.47;6319393;28;20558;-69
2022/10/05 00:44:23;;;;;;;;;;;;;;;1.47;50.83;98640.94;6321468;28;20047;-68
2022/10/05 00:47:34;;;;;;;4.97;2.13;;;;;;;1.38;50.94;98635.75;6320979;28;19927;-68
2022/10/05 00:51:07;;;;;;;11.55;4.57;;;;;;;1.33;51.62;98634.03;6320912;28;20126;-69
2022/10/05 00:54:30;;;;;;;4.97;2.40;;;;;;;1.41;51.01;98630.56;6288642;28;20130;-69
2022/10/05 00:57:54;;;;;;;4.53;1.92;;;;;;;1.53;50.95;98625.41;6320684;28;20044;-70
2022/10/05 01:01:26;;;;;;;3.47;2.03;;;;;;;1.60;50.42;98619.31;6319305;28;20044;-69
2022/10/05 01:04:36;;;;;;;5.47;2.42;;;;;;;1.50;50.66;98630.56;6320637;28;20048;-69
2022/10/05 01:07:51;;;;;;;2.92;1.40;;;;;;;1.48;50.60;98621.94;6320470;28;20058;-69
2022/10/05 01:11:06;;;;;;;;;;;;;;;1.34;50.45;98616.75;6320905;28;20127;-69
2022/10/05 01:14:15;;;;;;;3.67;1.80;;;;;;;1.32;51.11;98621.91;6320502;28;20404;-69
2022/10/05 01:17:39;;;;;;;2.97;1.50;;;;;;;1.21;51.17;98615.88;6320566;28;20050;-69
2022/10/05 01:20:40;;;;;;;11.98;4.15;;;;;;;1.15;51.59;98617.59;6320156;28;20044;-69
2022/10/05 01:24:12;;;;;;;3.88;1.98;;;;;;;1.12;51.72;98614.13;6319123;28;20036;-69
2022/10/05 01:27:32;;;;;;;15.95;7.10;;;;;;;1.03;51.68;98613.28;6285286;28;20040;-69
2022/10/05 01:30:46;;;;;;;11.77;6.78;;;;;;;0.88;52.48;98602.03;6320071;28;20051;-69
2022/10/05 01:34:00;;;;;;;9.52;4.25;;;;;;;0.81;52.35;98614.97;6320505;28;20525;-69
2022/10/05 01:37:04;;;;;;;13.68;7.10;;;;;;;0.71;53.05;98616.69;6320254;28;20047;-69
2022/10/05 01:40:23;;;;;;;;;;;;;;;0.61;52.68;98609.72;6320621;28;20548;-69
2022/10/05 01:43:43;;;;;;;15.70;7.38;;;;;;;0.52;53.27;98617.50;6322303;28;20309;-69
2022/10/05 01:47:11;;;;;;;16.58;6.78;;;;;;;0.44;53.91;98618.31;6325243;28;20073;-69
2022/10/05 01:50:35;;;;;;;12.00;6.20;;;;;;;0.36;53.98;98613.97;6314792;28;20058;-68
2022/10/05 01:53:51;;;;;;;12.35;6.70;;;;;;;0.32;54.05;98610.50;6324873;28;20036;-69
2022/10/05 01:57:12;;;;;;;14.60;6.82;;;;;;;0.30;54.26;98609.63;6324825;28;20121;-68
2022/10/05 02:00:18;;;;;;;21.77;7.55;;;;;;;0.27;54.64;98611.34;6324782;28;20040;-69
2022/10/05 02:03:25;;;;;;;14.70;7.43;;;;;;;0.32;54.79;98623.47;6324539;28;20043;-69
2022/10/05 02:06:36;;;;;;;13.98;6.60;;;;;;;0.36;54.37;98614.81;6324379;28;20416;-69
2022/10/05 02:09:54;;;;;;;16.33;6.70;;;;;;;0.48;54.33;98610.56;6324530;28;20066;-69
2022/10/05 02:13:40;;;;;;;15.02;6.60;;;;;;;0.57;54.35;98613.19;6324496;28;20040;-69
2022/10/05 02:16:47;;;;;;;12.15;6.30;;;;;;;0.67;53.92;98625.28;6248778;28;20052;-69
2022/10/05 02:19:57;;;;;;;14.43;7.18;;;;;;;0.75;54.04;98617.53;6324369;28;20046;-68
2022/10/05 02:23:07;;;;;;;17.95;7.45;;;;;;;0.87;53.84;98628.78;6323873;28;20048;-68
2022/10/05 02:26:11;;;;;;;17.65;7.68;;;;;;;0.99;53.97;98621.88;6324142;28;20638;-69
2022/10/05 02:29:20;;;;;;;7.85;4.05;;;;;;;1.06;53.36;98613.28;6323745;28;20048;-68
2022/10/05 02:32:28;;;;;;;14.45;6.15;;;;;;;1.23;53.06;98626.25;6324152;28;20035;-69
2022/10/05 02:35:29;;;;;;;13.68;6.50;;;;;;;1.32;53.27;98627.09;6323871;28;20413;-71
2022/10/05 02:38:52;;;;;;;16.70;6.93;;;;;;;1.44;52.64;98635.75;6323965;28;20040;-68
2022/10/05 02:42:09;;;;;;;21.13;8.75;;;;;;;1.47;53.45;98635.75;6323757;28;20618;-68
2022/10/05 02:45:21;;;;;;;24.10;7.90;;;;;;;1.48;53.54;98633.16;6323690;28;20406;-69
2022/10/05 02:48:35;;;;;;;21.38;8.30;;;;;;;1.53;53.58;98640.97;6323624;28;20036;-68
2022/10/05 02:52:01;;;;;;;20.17;7.87;;;;;;;1.45;53.30;98640.94;6323125;28;20052;-69
2022/10/05 02:55:16;;;;;;;17.05;7.10;;;;;;;1.42;53.37;98638.34;6322329;28;20050;-69
2022/10/05 02:58:24;;;;;;;15.05;6.88;;;;;;;1.39;52.98;98653.03;6323163;28;20048;-71
2022/10/05 03:01:29;;;;;;;10.77;5.82;;;;;;;1.45;53.32;98658.25;6323400;28;20450;-69
2022/10/05 03:04:44;;;;;;;10.95;4.78;;;;;;;1.55;52.55;98654.78;6323254;28;20048;-71
2022/10/05 03:07:59;;;;;;;9.35;4.85;;;;;;;1.74;51.64;98656.50;6323136;28;20519;-70
2022/10/05 03:11:06;;;;;;;16.13;6.95;;;;;;;1.83;51.45;98634.84;6323159;28;20043;-70
2022/10/05 03:14:25;;;;;;;10.45;5.30;;;;;;;2.01;50.49;98633.97;6323028;28;20044;-69
2022/10/05 03:17:52;;;;;;;5.93;3.00;;;;;;;2.32;49.80;98633.84;6322029;28;20052;-68
2022/10/05 03:20:55;;;;;;;4.28;3.40;;;;;;;2.42;48.59;98625.16;6321962;28;20418;-69
2022/10/05 03:24:39;;;;;;;4.05;3.05;;;;;;;2.43;48.91;98632.94;6322094;28;20055;-70
2022/10/05 03:27:58;;;;;;;3.22;1.98;;;;;;;2.72;47.76;98638.84;6322489;28;20039;-70
2022/10/05 03:31:05;;;;;;;3.17;2.00;;;;;;;2.74;47.99;98642.31;6321869;28;20055;-70
2022/10/05 03:34:38;;;;;;;3.63;1.70;;;;;;;2.91;47.32;98656.09;6322208;28;20040;-68
2022/10/05 03:37:57;;;;;;;3.33;1.60;;;;;;;3.04;47.08;98662.97;6322271;28;20044;-70
2022/10/05 03:41:38;;;;;;;3.42;1.63;;;;;;;3.22;46.73;98663.72;6322559;28;20036;-69
2022/10/05 03:45:01;;;;;;;2.88;1.65;;;;;;;3.42;46.48;98654.00;6288200;28;20056;-70
2022/10/05 03:48:11;;;;;;;5.32;1.95;;;;;;;3.56;46.00;98651.31;6322084;28;20501;-70
2022/10/05 03:51:28;;;;;;;6.55;2.33;;;;;;;3.67;46.03;98653.81;6321666;28;20166;-69
2022/10/05 03:54:56;;;;;;;6.22;1.85;;;;;;;3.85;45.52;98648.47;6322052;28;20421;-69
2022/10/05 03:58:12;;;;;;;2.25;1.40;;;;;;;4.09;45.08;98643.88;6322046;28;20548;-69
2022/10/05 04:01:24;;;;;;;6.70;3.25;;;;;;;4.30;44.44;98643.63;6321915;28;20040;-70
2022/10/05 04:05:03;;;;;;;4.80;2.47;;;;;;;4.57;44.10;98649.41;6320619;28;20048;-69
2022/10/05 04:08:25;;;;;;;7.95;4.43;;;;;;;4.62;43.80;98648.47;6321743;28;20138;-70
2022/10/05 04:11:36;;;;;;;6.68;3.83;;;;;;;4.67;43.99;98646.66;6321869;28;20520;-71
2022/10/05 04:14:47;;;;;;;9.75;3.90;;;;;;;4.81;44.02;98651.72;6321745;28;20040;-70
2022/10/05 04:17:56;;;;;;;5.95;3.10;;;;;;;4.91;44.00;98644.59;6321536;28;20081;-68
2022/10/05 04:21:07;;;;;;;5.85;3.55;;;;;;;5.05;44.14;98641.81;6321156;28;20052;-68
2022/10/05 04:24:17;;;;;;;8.15;2.83;;;;;;;5.10;43.91;98625.19;6321081;28;20048;-68
2022/10/05 04:27:23;;;;;;;3.78;2.10;;;;;;;5.12;44.02;98643.41;6321280;28;20117;-68
2022/10/05 04:30:29;;;;;;;3.42;1.65;;;;;;;5.28;43.59;98633.63;6321223;28;20417;-68
2022/10/05 04:33:31;;;;;;;2.78;1.52;;;;;;;5.40;43.61;98623.84;6320794;28;20051;-69
2022/10/05 04:36:48;;;;;;;3.10;1.60;;;;;;;5.45;43.48;98630.75;6321033;28;20046;-68
2022/10/05 04:39:59;;;;;;;2.03;1.23;;;;;;;5.54;43.40;98623.63;6320953;28;20073;-69
2022/10/05 04:43:26;;;;;;;1.90;1.33;;;;;;;5.66;42.27;98614.72;6320856;28;20413;-68
2022/10/05 04:46:39;;;;;;;2.70;1.42;;;;;;;5.67;41.55;98600.78;6320815;28;20040;-68
2022/10/05 04:50:16;;;;;;;6.15;1.67;;;;;;;5.77;41.42;98610.16;6320570;28;20040;-68
2022/10/05 04:53:38;;;;;;;1.63;1.20;;;;;;;5.80;41.26;98610.13;6311151;28;20044;-68
2022/10/05 04:57:03;;;;;;;2.58;1.30;;;;;;;5.88;41.21;98604.75;6320832;28;20127;-70
2022/10/05 05:00:24;;;;;;;2.30;1.60;;;;;;;5.99;40.67;98612.44;6320575;28;20039;-69
2022/10/05 05:03:37;;;;;;;2.25;1.40;;;;;;;6.05;40.63;98612.31;6319486;28;20144;-68
2022/10/05 05:06:41;;;;;;;3.53;1.70;;;;;;;6.07;40.19;98615.75;6320693;28;20036;-71
2022/10/05 05:10:31;;;;;;;3.72;1.25;;;;;;;5.88;40.68;98609.97;6320562;28;20046;-69
2022/10/05 05:14:00;;;;;;;3.67;1.58;;;;;;;6.01;40.73;98605.44;6320656;28;20138;-68
2022/10/05 05:17:23;;;;;;;1.52;1.40;;;;;;;6.34;40.51;98603.03;6320129;28;20390;-69
2022/10/05 05:20:50;;;;;;;1.98;1.48;;;;;;;6.45;40.20;98611.53;6320175;28;20410;-68
2022/10/05 05:24:10;;;;;;;2.92;1.48;;;;;;;6.74;40.22;98603.94;6318801;28;20055;-69
2022/10/05 05:27:24;;;;;;;3.03;1.50;;;;;;;10.42;35.03;98612.59;6320209;28;20131;-68
2022/10/05 05:31:04;;;;;;;3.25;1.45;;;;;;;16.14;27.48;98617.84;6318999;28;20416;-69
2022/10/05 05:34:28;;;;;;;2.45;1.35;;;;;;;20.16;23.01;98630.66;6320239;28;20054;-68
2022/10/05 05:37:51;;;;;;;2.67;1.27;;;;;;;21.65;20.06;98626.09;6305942;28;20105;-70
2022/10/05 05:41:03;;;;;;;2.53;1.42;;;;;;;23.25;17.91;98626.75;6319791;28;20481;-70
2022/10/05 05:44:15;;;;;;;1.85;1.30;;;;;;;23.82;16.95;98633.25;6319999;28;20066;-69
2022/10/05 05:47:38;;;;;;;1.67;1.05;;;;;;;24.24;17.05;98626.75;6320022;28;20394;-69
2022/10/05 05:51:15;;;;;;;1.63;1.08;;;;;;;24.94;16.12;98614.72;6319973;28;20040;-69
2022/10/05 05:54:55;;;;;;;1.75;1.13;;;;;;;26.29;15.70;98620.22;6318959;28;20035;-69
2022/10/05 05:58:09;;;;;;;1.13;0.90;;;;;;;26.92;14.24;98607.50;6276953;28;20051;-69
2022/10/05 06:01:35;;;;;;;1.08;0.75;;;;;;;28.49;13.27;98603.16;6319939;28;20063;-69
2022/10/05 06:05:08;;;;;;;1.15;0.80;;;;;;;27.81;13.36;98592.66;6319868;28;20425;-69
2022/10/05 06:08:15;;;;;;;;;;;;;;;28.73;13.25;98598.72;6320135;28;20063;-69
2022/10/05 06:11:44;;;;;;;2.15;0.90;;;;;;;28.48;12.82;98590.66;6318778;28;19920;-69
2022/10/05 06:14:59;;;;;;;1.80;0.88;;;;;;;29.94;11.99;98599.19;6319669;28;20524;-69
2022/10/05 06:18:12;;;;;;;2.85;2.47;;;;;;;30.15;11.07;98603.13;6318880;28;20040;-69
2022/10/05 06:21:37;;;;;;;2.92;1.80;;;;;;;30.93;11.15;98599.19;6319632;28;20052;-69
2022/10/05 06:25:06;;;;;;;1.45;1.13;;;;;;;31.21;10.88;98595.78;6319575;28;20043;-69
2022/10/05 06:28:18;;;;;;;2.13;0.93;;;;;;;31.63;10.21;98594.25;6319641;28;20040;-69
2022/10/05 06:31:30;;;;;;;3.17;1.00;;;;;;;31.02;10.33;98594.50;6324073;28;20048;-69
2022/10/05 06:34:38;;;;;;;1.30;0.90;;;;;;;31.17;10.46;98583.59;6323838;28;20432;-69
2022/10/05 06:37:49;;;;;;;1.60;0.93;;;;;;;31.84;9.80;98577.09;6324241;28;20044;-69
2022/10/05 06:41:22;;;;;;;1.35;0.80;;;;;;;32.51;9.93;98576.69;6323620;28;20598;-69
2022/10/05 06:44:33;;;;;;;3.25;1.05;;;;;;;32.33;9.72;98593.50;6324024;28;20113;-68
2022/10/05 06:47:55;;;;;;;5.80;0.80;;;;;;;32.86;9.26;98596.63;6323867;28;20047;-68
2022/10/05 06:51:12;;;;;;;1.25;0.68;;;;;;;31.83;9.83;98583.56;6323860;28;20036;-68
2022/10/05 06:54:35;;;;;;;1.95;1.00;;;;;;;32.47;9.85;98583.59;6323529;28;20048;-69
2022/10/05 06:57:48;;;;;;;2.08;0.90;;;;;;;33.41;9.22;98583.09;6323449;28;20166;-69
2022/10/05 07:00:53;;;;;;;2.00;0.88;;;;;;;32.19;9.11;98592.53;6323320;28;20047;-69
2022/10/05 07:04:00;;;;;;;3.15;1.00;;;;;;;32.23;9.23;98575.81;6323279;28;20048;-69
2022/10/05 07:07:09;;;;;;;0.90;0.70;;;;;;;33.62;8.90;98568.47;6322872;28;20040;-69
2022/10/05 07:11:08;;;;;;;1.73;1.23;;;;;;;35.75;7.75;98569.06;6321900;28;20052;-69
2022/10/05 07:14:19;;;;;;;1.92;0.65;;;;;;;36.25;7.87;98557.34;6221198;28;20061;-69
2022/10/05 07:17:43;;;;;;;0.95;0.65;;;;;;;36.38;7.83;98556.41;6221517;28;20044;-70
2022/10/05 07:21:16;;;;;;;1.83;0.70;;;;;;;36.54;7.18;98550.34;6322535;28;20040;-69
2022/10/05 07:24:48;;;;;;;1.73;0.63;;;;;;;34.43;7.42;98538.31;6322763;28;20508;-69
2022/10/05 07:27:56;;;;;;;3.83;0.90;;;;;;;33.80;8.14;98537.88;6322717;28;20036;-69
2022/10/05 07:31:10;;;;;;;2.22;1.05;;;;;;;33.57;8.03;98526.47;6322591;28;20039;-69
2022/10/05 07:34:21;;;;;;;2.15;1.10;;;;;;;33.65;8.25;98518.09;6321961;28;20054;-69
2022/10/05 07:37:53;;;;;;;1.10;0.70;;;;;;;34.63;7.64;98518.34;6322308;28;20050;-69
2022/10/05 07:41:03;;;;;;;1.50;0.95;;;;;;;32.73;8.13;98513.94;6321124;28;20052;-68
2022/10/05 07:44:26;;;;;;;1.88;1.10;;;;;;;29.04;10.20;98488.53;6322160;28;20047;-68
2022/10/05 07:47:39;;;;;;;2.45;1.05;;;;;;;26.99;11.12;98487.00;6320177;28;20452;-69
2022/10/05 07:51:06;;;;;;;3.30;1.45;;;;;;;28.00;10.31;98484.13;6322531;28;20048;-69
2022/10/05 07:54:30;;;;;;;2.97;1.77;;;;;;;28.87;9.69;98508.59;6308326;28;20059;-68
2022/10/05 07:57:50;;;;;;;1.98;1.67;;;;;;;27.50;10.58;98487.81;6321915;28;20063;-68
2022/10/05 08:01:07;;;;;;;2.30;1.10;;;;;;;26.11;11.24;98476.44;6321853;28;20044;-68
2022/10/05 08:04:37;;;;;;;1.92;1.40;;;;;;;24.61;11.94;98473.44;6321604;28;20048;-68
2022/10/05 08:07:44;;;;;;;3.45;1.50;;;;;;;21.94;13.24;98463.72;6321777;28;20035;-68
2022/10/05 08:10:58;;;;;;;1.52;1.33;;;;;;;20.51;14.48;98463.97;6320612;28;20050;-68
2022/10/05 08:14:05;;;;;;;;;;;;;;;20.54;14.75;98469.09;6321752;28;20458;-68
2022/10/05 08:17:17;;;;;;;3.50;1.85;;;;;;;20.50;14.80;98459.59;6319691;28;19922;-68
2022/10/05 08:20:49;;;;;;;3.17;1.70;;;;;;;20.12;15.32;98463.47;6320302;28;20032;-69
2022/10/05 08:24:05;;;;;;;3.53;1.63;;;;;;;20.30;15.20;98460.34;6321548;28;20044;-70
2022/10/05 08:27:15;;;;;;;;;;;;;;;19.27;15.72;98461.06;6321790;28;20036;-67
2022/10/05 08:30:18;;;;;;;2.33;1.60;;;;;;;18.24;16.59;98464.19;6321216;28;19938;-68
2022/10/05 08:33:21;;;;;;;2.67;2.00;;;;;;;17.76;17.25;98456.81;6321101;28;20043;-68
2022/10/05 08:36:45;;;;;;;3.30;2.15;;;;;;;19.21;16.52;98461.53;6321039;28;20043;-70
2022/10/05 08:40:13;;;;;;;2.72;2.17;;;;;;;20.08;16.14;98451.34;6321088;28;20052;-70
2022/10/05 08:43:21;;;;;;;4.03;1.90;;;;;;;20.25;16.07;98462.53;6320950;28;20429;-69
2022/10/05 08:46:50;;;;;;;3.63;1.88;;;;;;;20.33;15.87;98458.28;6320948;28;20043;-69
2022/10/05 08:49:57;;;;;;;3.60;2.30;;;;;;;21.16;15.08;98456.06;6309882;28;20048;-69
2022/10/05 08:53:40;;;;;;;3.38;2.50;;;;;;;20.93;15.25;98468.66;6320238;28;20047;-69
2022/10/05 08:56:47;;;;;;;3.97;2.75;;;;;;;20.87;15.36;98437.91;6218554;28;20066;-70
2022/10/05 08:59:57;;;;;;;2.38;1.92;;;;;;;22.56;14.32;98434.22;6218754;28;20496;-68
2022/10/05 09:03:29;;;;;;;2.25;1.77;;;;;;;24.28;13.11;98431.78;6320453;28;20043;-69
2022/10/05 09:06:40;;;;;;;3.42;2.10;;;;;;;23.62;12.87;98427.28;6320333;28;20043;-68
2022/10/05 09:10:13;;;;;;;3.28;1.67;;;;;;;23.16;12.99;98440.44;6320465;28;20569;-67
2022/10/05 09:13:51;;;;;;;4.47;2.55;;;;;;;21.46;14.23;98432.13;6320484;28;20490;-69
2022/10/05 09:17:28;;;;;;;3.58;2.78;;;;;;;20.52;14.89;98428.25;6320499;28;20044;-69
2022/10/05 09:20:40;;;;;;;5.45;2.50;;;;;;;22.99;13.22;98441.16;6306512;28;20448;-69
2022/10/05 09:23:48;;;;;;;2.58;1.80;;;;;;;23.96;11.94;98428.50;6320286;28;20138;-69
2022/10/05 09:26:56;;;;;;;3.30;2.03;;;;;;;22.81;12.89;98428.34;6320149;28;20036;-69
2022/10/05 09:30:31;;;;;;;4.07;2.92;;;;;;;22.76;13.32;98419.03;6320161;28;20044;-69
2022/10/05 09:33:55;;;;;;;5.05;2.50;;;;;;;23.65;12.84;98417.06;6320136;28;20076;-69
2022/10/05 09:37:32;;;;;;;4.65;3.03;;;;;;;24.70;12.03;98412.47;6319102;28;20044;-69
2022/10/05 09:40:51;;;;;;;6.25;4.15;;;;;;;24.24;11.74;98419.63;6320117;28;20044;-69
2022/10/05 09:44:17;;;;;;;5.20;3.28;;;;;;;24.29;11.94;98409.25;6319901;28;20378;-69
2022/10/05 09:47:35;;;;;;;3.08;2.22;;;;;;;24.57;11.83;98405.63;6319897;28;20036;-69
2022/10/05 09:50:49;;;;;;;4.07;2.28;;;;;;;24.31;11.75;98418.03;6319904;28;20043;-69
2022/10/05 09:54:04;;;;;;;3.30;2.15;;;;;;;23.25;12.34;98403.84;6319981;28;20047;-68
2022/10/05 09:57:27;;;;;;;6.20;2.30;;;;;;;22.19;13.10;98391.91;6319858;28;20040;-69
2022/10/05 10:00:52;;;;;;;3.15;1.90;;;;;;;20.45;13.95;98388.75;6319674;28;20058;-68
2022/10/05 10:04:23;;;;;;;6.07;3.95;;;;;;;19.27;15.24;98390.81;6321055;28;20047;-68
2022/10/05 10:08:03;;;;;;;4.15;2.55;;;;;;;19.25;15.52;98388.28;6324722;28;20036;-69
2022/10/05 10:11:40;;;;;;;3.58;2.20;;;;;;;18.68;16.11;98380.97;6324658;28;20583;-69
2022/10/05 10:15:22;;;;;;;1.83;1.52;;;;;;;18.62;16.28;98373.44;6324567;28;20090;-69
2022/10/05 10:18:24;;;;;;;5.68;2.50;;;;;;;18.77;16.49;98390.16;6324323;28;20036;-69
2022/10/05 10:21:44;;;;;;;2.80;2.03;;;;;;;19.00;16.09;98383.13;6324269;28;20059;-69
2022/10/05 10:25:04;;;;;;;4.28;2.78;;;;;;;18.51;16.65;98378.69;6323984;28;20047;-68
2022/10/05 10:28:31;;;;;;;5.90;3.17;;;;;;;18.08;17.04;98368.50;6324279;28;20066;-69
2022/10/05 10:31:47;;;;;;;3.50;2.13;;;;;;;18.28;16.90;98375.06;6292735;28;20051;-68
2022/10/05 10:34:55;;;;;;;3.35;2.10;;;;;;;18.07;17.10;98377.47;6322849;28;20036;-69
2022/10/05 10:38:13;;;;;;;2.65;1.80;;;;;;;17.87;17.27;98373.56;6324097;28;20040;-69
2022/10/05 10:41:39;;;;;;;3.83;2.28;;;;;;;17.64;17.63;98356.50;6324018;28;20413;-68
2022/10/05 10:44:52;;;;;;;5.00;2.30;;;;;;;17.35;17.54;98348.69;6323895;28;20112;-68
2022/10/05 10:48:28;;;;;;;3.15;2.13;;;;;;;17.00;18.15;98344.00;6323919;28;20044;-68
2022/10/05 10:51:58;;;;;;;4.03;1.80;;;;;;;16.78;18.18;98359.69;6323678;28;20032;-68
2022/10/05 10:55:31;;;;;;;2.75;2.08;;;;;;;16.43;18.32;98362.81;6322993;28;20125;-70
2022/10/05 10:59:09;;;;;;;4.50;2.00;;;;;;;16.14;18.28;98354.94;6323351;28;20066;-70
2022/10/05 11:02:46;;;;;;;4.43;2.13;;;;;;;15.91;18.53;98363.50;6323178;28;20517;-68
2022/10/05 11:06:10;;;;;;;3.67;2.13;;;;;;;15.94;18.52;98347.38;6322827;28;20429;-70
2022/10/05 11:09:44;;;;;;;3.75;2.13;;;;;;;15.89;18.47;98330.88;6322691;28;20048;-69
2022/10/05 11:13:15;;;;;;;5.22;2.25;;;;;;;15.81;18.63;98338.47;6289893;28;20044;-68
2022/10/05 11:16:28;;;;;;;3.30;1.85;;;;;;;15.62;18.58;98347.53;6322047;28;20456;-70
2022/10/05 11:19:48;;;;;;;4.80;1.80;;;;;;;15.43;18.52;98354.94;6322837;28;20040;-69
2022/10/05 11:23:22;;;;;;;3.50;2.20;;;;;;;15.01;18.87;98332.72;6322667;28;20052;-70
2022/10/05 11:26:41;;;;;;;;;;;;;;;15.02;19.20;98323.81;6323235;28;20044;-68
2022/10/05 11:30:01;;;;;;;2.60;1.98;;;;;;;14.85;19.80;98329.25;6322496;28;19920;-69
2022/10/05 11:33:25;;;;;;;2.60;2.25;;;;;;;14.84;20.13;98316.97;6322741;28;20044;-69
2022/10/05 11:36:36;;;;;;;2.10;1.38;;;;;;;14.70;20.35;98331.88;6322510;28;20040;-70
2022/10/05 11:39:57;;;;;;;4.60;2.72;;;;;;;14.64;20.62;98328.75;6322560;28;20036;-69
2022/10/05 11:43:05;;;;;;;3.40;2.70;;;;;;;14.63;20.58;98335.81;6322034;28;20040;-70
2022/10/05 11:46:15;;;;;;;4.85;2.47;;;;;;;14.54;20.83;98337.19;6321415;28;20052;-70
2022/10/05 11:49:47;;;;;;;2.63;2.30;;;;;;;14.49;21.15;98335.72;6322205;28;20036;-69
2022/10/05 11:53:00;;;;;;;4.80;2.90;;;;;;;14.47;21.31;98329.69;6322048;28;20417;-68
2022/10/05 11:56:20;;;;;;;5.88;3.10;;;;;;;14.33;21.71;98331.31;6322033;28;20130;-70
2022/10/05 11:59:40;;;;;;;3.30;2.45;;;;;;;14.14;21.96;98333.28;6321810;28;20505;-67
2022/10/05 12:02:55;;;;;;;4.45;2.78;;;;;;;14.09;22.24;98335.31;6321799;28;20047;-70
2022/10/05 12:06:26;;;;;;;3.63;2.42;;;;;;;13.93;22.34;98330.91;6321666;28;20489;-69
2022/10/05 12:10:20;;;;;;;4.82;2.92;;;;;;;13.90;22.44;98324.94;6317764;28;20052;-70
2022/10/05 12:13:50;;;;;;;3.35;2.30;;;;;;;13.91;22.58;98321.34;6318854;28;20044;-69
2022/10/05 12:17:28;;;;;;;3.15;2.60;;;;;;;13.88;22.31;98327.66;6319401;28;20429;-70
2022/10/05 12:20:38;;;;;;;4.80;2.58;;;;;;;13.72;22.28;98316.19;6320478;28;20062;-69
2022/10/05 12:23:46;;;;;;;4.35;2.47;;;;;;;13.61;22.52;98307.97;6321052;28;20044;-69
2022/10/05 12:27:03;;;;;;;4.47;3.78;;;;;;;13.56;22.74;98315.31;6319739;28;20189;-69
2022/10/05 12:30:12;;;;;;;5.85;3.20;;;;;;;13.53;22.78;98307.53;6320669;28;20058;-69
2022/10/05 12:33:31;;;;;;;4.43;2.58;;;;;;;13.32;23.18;98301.63;6320914;28;20036;-70
2022/10/05 12:36:44;;;;;;;5.35;2.08;;;;;;;13.33;23.17;98303.31;6320944;28;20044;-70
2022/10/05 12:39:54;;;;;;;3.38;2.40;;;;;;;13.29;23.44;98302.63;6320935;28;20075;-69
2022/10/05 12:43:14;;;;;;;3.75;2.40;;;;;;;13.18;23.69;98291.75;6320613;28;20051;-71
2022/10/05 12:46:29;;;;;;;3.53;2.50;;;;;;;13.03;23.80;98291.63;6320291;28;20459;-69
2022/10/05 12:49:42;;;;;;;5.28;2.60;;;;;;;12.92;23.97;98286.03;6320860;28;20044;-70
2022/10/05 12:53:01;;;;;;;2.88;2.40;;;;;;;12.87;24.13;98280.13;6320002;28;20566;-70
2022/10/05 12:56:23;;;;;;;4.45;2.22;;;;;;;12.75;24.14;98286.06;6319701;28;20051;-70
2022/10/05 12:59:48;;;;;;;4.72;2.25;;;;;;;12.60;24.36;98277.13;6320167;28;20040;-69
2022/10/05 13:03:01;;;;;;;3.85;2.03;;;;;;;12.68;24.42;98274.06;6301896;28;20398;-69
2022/10/05 13:06:23;;;;;;;2.22;1.98;;;;;;;12.47;24.71;98276.88;6318287;28;20051;-69
2022/10/05 13:09:30;;;;;;;3.08;2.35;;;;;;;12.45;24.85;98268.16;6320088;28;20059;-68
2022/10/05 13:12:40;;;;;;;2.72;1.85;;;;;;;12.22;25.09;98271.09;6319611;28;20059;-69
2022/10/05 13:16:09;;;;;;;4.22;1.90;;;;;;;12.16;25.39;98271.41;6320164;28;20481;-69
2022/10/05 13:19:25;;;;;;;3.97;2.03;;;;;;;12.12;25.42;98268.06;6310857;28;20044;-69
2022/10/05 13:22:54;;;;;;;1.92;1.73;;;;;;;12.00;25.58;98251.06;6320143;28;20066;-69
2022/10/05 13:26:16;;;;;;;3.15;2.00;;;;;;;11.95;25.82;98263.63;6319439;28;20056;-69
2022/10/05 13:29:43;;;;;;;3.72;2.00;;;;;;;12.01;25.73;98250.13;6320297;28;20144;-70
2022/10/05 13:33:05;;;;;;;2.08;1.80;;;;;;;12.04;25.75;98241.22;6294256;28;20048;-69
2022/10/05 13:36:23;;;;;;;3.83;2.13;;;;;;;11.99;25.77;98244.06;6294791;28;20497;-69
2022/10/05 13:39:50;;;;;;;5.47;2.13;;;;;;;11.94;25.82;98240.78;6299013;28;20040;-68
2022/10/05 13:43:02;;;;;;;3.40;2.13;;;;;;;11.94;25.77;98253.97;6297634;28;20135;-68
2022/10/05 13:46:26;;;;;;;4.57;2.40;;;;;;;11.79;25.99;98252.06;6297758;28;20056;-69
2022/10/05 13:49:36;;;;;;;3.83;2.17;;;;;;;11.71;26.01;98255.03;6299032;28;20075;-69
2022/10/05 13:52:43;;;;;;;3.53;2.00;;;;;;;11.66;25.97;98236.81;6299418;28;20425;-69
2022/10/05 13:55:46;;;;;;;3.10;2.05;;;;;;;11.68;26.00;98244.66;6299568;28;20040;-68
2022/10/05 13:58:59;;;;;;;3.58;2.30;;;;;;;11.67;25.89;98242.94;6297498;28;20055;-69
2022/10/05 14:02:15;;;;;;;2.33;1.70;;;;;;;11.69;25.81;98241.94;6299361;28;20044;-68
2022/10/05 14:05:22;;;;;;;2.30;2.08;;;;;;;11.71;26.06;98251.56;6298542;28;20079;-70
2022/10/05 14:08:33;;;;;;;2.83;1.90;;;;;;;11.79;25.78;98252.06;6299507;28;20041;-69
2022/10/05 14:11:35;;;;;;;2.42;1.85;;;;;;;11.66;26.00;98263.19;6299027;28;20151;-70
2022/10/05 14:14:52;;;;;;;2.47;1.95;;;;;;;11.70;25.87;98258.63;6299030;28;20044;-70
2022/10/05 14:17:54;;;;;;;5.10;1.92;;;;;;;11.62;26.12;98251.06;6298503;28;20057;-70
2022/10/05 14:21:02;;;;;;;3.38;1.83;;;;;;;11.71;25.95;98247.13;6298674;28;20056;-70
2022/10/05 14:24:27;;;;;;;2.72;1.52;;;;;;;11.68;25.91;98249.91;6299265;28;20486;-70
2022/10/05 14:27:34;;;;;;;2.05;1.58;;;;;;;11.56;26.19;98232.91;6299007;28;20064;-68
2022/10/05 14:30:35;;;;;;;2.72;1.80;;;;;;;11.57;26.47;98237.25;6298247;28;20048;-70
2022/10/05 14:33:39;;;;;;;5.68;2.05;;;;;;;11.66;26.32;98226.28;6297606;28;20040;-70
2022/10/05 14:36:43;;;;;;;3.63;1.67;;;;;;;11.67;26.34;98249.06;6298780;28;20036;-69
2022/10/05 14:39:48;;;;;;;3.15;2.47;;;;;;;11.68;26.50;98242.84;6297644;28;20047;-70
2022/10/05 14:42:50;;;;;;;4.43;2.55;;;;;;;11.60;26.56;98252.91;6298547;28;20513;-70
2022/10/05 14:45:56;;;;;;;4.25;2.88;;;;;;;11.55;26.45;98247.03;6298219;28;20047;-70
2022/10/05 14:49:28;;;;;;;4.78;2.80;;;;;;;11.52;26.77;98249.81;6297429;28;20040;-70
2022/10/05 14:52:35;;;;;;;6.28;2.58;;;;;;;11.56;26.86;98245.25;6298282;28;20055;-69
2022/10/05 14:56:01;;;;;;;4.90;2.47;;;;;;;11.60;26.78;98266.09;6298415;28;20131;-71
2022/10/05 14:59:14;;;;;;;2.63;2.20;;;;;;;11.60;27.10;98258.19;6298314;28;20041;-71
2022/10/05 15:02:43;;;;;;;4.75;2.05;;;;;;;11.50;27.08;98266.63;6297813;28;20040;-71
2022/10/05 15:05:51;;;;;;;3.38;2.58;;;;;;;11.47;27.63;98251.78;6297390;28;20044;-71
2022/10/05 15:09:10;;;;;;;3.40;2.08;;;;;;;11.43;27.51;98244.94;6298127;28;20048;-70
2022/10/05 15:12:26;;;;;;;4.57;2.70;;;;;;;11.21;28.11;98240.69;6297357;28;20059;-70
2022/10/05 15:15:46;;;;;;;3.83;2.22;;;;;;;11.20;28.33;98235.47;6295595;28;20048;-68
2022/10/05 15:18:52;;;;;;;3.38;2.30;;;;;;;11.19;28.39;98241.66;6297930;28;20041;-69
2022/10/05 15:22:25;;;;;;;6.18;2.47;;;;;;;11.14;28.39;98244.50;6297430;28;20147;-70
2022/10/05 15:25:39;;;;;;;5.43;2.38;;;;;;;11.05;28.55;98228.25;6297543;28;20040;-69
2022/10/05 15:28:47;;;;;;;;;;;;;;;11.15;28.35;98233.06;6298170;28;20458;-69
2022/10/05 15:32:05;;;;;;;3.90;2.50;;;;;;;10.97;28.58;98220.69;6297418;28;20401;-71
2022/10/05 15:35:28;;;;;;;4.13;2.22;;;;;;;11.00;28.61;98225.81;6297636;28;20045;-70